Latest Weather Observations for Woolshed

IDQ60801

Issued at 3:32 pm EST Friday 27 February 2015 (issued every 30 minutes, with the page automatically refreshed every 10 minutes)

About weather observations | Map of weather stations | Latest weather observations for QLD | Other Formats
Station Details ID: 033307 Name: WOOLSHED Lat: -19.42 Lon: 146.54 Height: 556.04 m
Data from the previous 72 hours. | See also: Recent months at Woolshed
Date/Time
EST
Temp
°C
App
Temp
°C
Dew
Point
Rel
Hum
%
Delta-T
°C
Wind Press
QNH
hPa
Press
MSL
hPa
Rain
since 9 am
mm
Dir
 
Spd
km/h
Gust
km/h
Spd
kts
Gust
kts
27/03:30pm 27.9 29.8 21.4 67 4.4 NNE 13 22 7 12 1007.9 1004.3 0.0
27/03:00pm 27.8 30.1 21.3 67 4.4 NNE 11 26 6 14 1008.2 1004.6 0.0
27/02:30pm 28.2 31.1 21.7 68 4.4 NNE 9 19 5 10 1008.8 1005.1 0.0
27/02:00pm 28.9 32.1 23.1 71 4.1 NE 11 20 6 11 1009.1 1005.4 0.0
27/01:30pm 29.9 33.4 22.1 63 5.4 N 7 19 4 10 1009.3 1005.7 0.0
27/01:00pm 29.5 33.0 22.2 65 5.0 NNE 7 13 4 7 1009.8 1006.2 0.0
27/12:30pm 28.4 31.3 21.7 67 4.6 NNE 9 15 5 8 1010.3 1006.7 0.0
27/12:00pm 28.8 32.7 22.5 68 4.4 NNE 6 11 3 6 1010.8 1007.1 0.0
27/11:30am 28.0 31.4 22.0 70 4.1 NE 7 13 4 7 1011.2 1007.6 0.0
27/11:00am 26.9 29.8 21.0 70 4.0 NNE 7 13 4 7 1011.4 1007.8 0.0
27/10:30am 27.1 30.3 21.6 72 3.7 NE 7 17 4 9 1011.5 1007.9 0.0
27/10:00am 26.6 30.1 22.2 77 3.0 NNE 7 13 4 7 1011.4 1007.8 0.0
27/09:30am 26.2 29.8 22.3 79 2.7 NNE 7 11 4 6 1011.6 1008.0 0.0
27/09:00am 25.7 29.2 22.2 81 2.4 NE 7 13 4 7 1011.6 1008.0 0.0
27/08:30am 24.6 27.6 21.9 85 1.8 NE 9 15 5 8 1011.2 1007.6 0.0
27/08:00am 23.5 26.8 21.8 90 1.2 NNE 7 11 4 6 1011.0 1007.4 0.0
27/07:30am 23.5 26.8 21.8 90 1.2 NNE 7 13 4 7 1010.6 1006.9 0.0
27/07:00am 22.9 26.1 21.7 93 0.8 NNE 7 15 4 8 1010.2 1006.6 0.0
27/06:30am 22.3 25.5 21.6 96 0.5 NNE 7 19 4 10 1009.9 1006.3 0.0
27/06:00am 22.1 25.2 21.4 96 0.5 NNE 7 13 4 7 1010.0 1006.4 0.0
27/05:30am 22.5 25.7 21.7 95 0.5 NNE 7 17 4 9 1009.8 1006.2 0.0
27/05:00am 22.5 25.7 21.7 95 0.5 NNE 7 13 4 7 1009.6 1006.0 0.0
27/04:30am 22.6 25.8 21.6 94 0.7 NE 7 15 4 8 1009.4 1005.8 0.0
27/04:00am 22.7 25.8 21.5 93 0.8 NNE 7 13 4 7 1009.5 1005.9 0.0
27/03:30am 22.8 26.2 21.6 93 0.8 NE 6 13 3 7 1009.3 1005.7 0.0
27/03:00am 22.8 25.5 21.3 91 1.0 NE 9 17 5 9 1009.3 1005.7 0.0
27/02:30am 22.8 25.1 21.4 92 0.9 NE 11 19 6 10 1009.6 1006.0 0.0
27/02:00am 22.9 26.0 21.5 92 0.9 NE 7 15 4 8 1010.0 1006.4 0.0
27/01:30am 22.9 26.1 21.7 93 0.8 NE 7 15 4 8 1010.1 1006.5 0.0
27/01:00am 23.0 26.4 22.0 94 0.7 NNE 7 15 4 8 1010.3 1006.7 0.0
27/12:30am 23.0 26.0 22.0 94 0.7 NNE 9 20 5 11 1010.8 1007.1 0.0
27/12:00am 23.1 26.6 22.1 94 0.7 NE 7 13 4 7 1011.2 1007.6 0.0
 
Date/Time
EST
Temp
°C
App
Temp
°C
Dew
Point
Rel
Hum
%
Delta-T
°C
Wind Press
QNH
hPa
Press
MSL
hPa
Rain
since 9 am
mm
Dir
 
Spd
km/h
Gust
km/h
Spd
kts
Gust
kts
26/11:30pm 23.1 26.3 22.3 95 0.5 NNE 9 20 5 11 1011.3 1007.7 0.0
26/11:00pm 23.1 26.7 22.3 95 0.5 NNE 7 15 4 8 1011.6 1008.0 0.0
26/10:30pm 23.1 26.7 22.3 95 0.5 NNE 7 15 4 8 1011.4 1007.8 0.0
26/10:00pm 22.9 26.4 22.2 96 0.5 NNE 7 17 4 9 1010.9 1007.3 0.0
26/09:30pm 22.6 26.1 21.8 95 0.5 NNE 6 9 3 5 1010.7 1007.0 0.0
26/09:00pm 22.8 26.1 21.8 94 0.7 NNE 7 15 4 8 1010.3 1006.7 0.0
26/08:30pm 22.9 26.1 21.7 93 0.8 NNE 7 13 4 7 1009.9 1006.3 0.0
26/08:00pm 22.9 26.2 21.5 92 0.9 NNE 6 13 3 7 1009.6 1006.0 0.0
26/07:30pm 23.1 26.4 21.4 90 1.1 NNE 6 13 3 7 1009.4 1005.8 0.0
26/07:00pm 23.5 26.9 21.6 89 1.3 NNE 6 11 3 6 1009.3 1005.7 0.0
26/06:30pm 24.1 27.3 21.6 86 1.7 NNE 7 13 4 7 1009.0 1005.3 0.0
26/06:00pm 25.0 27.9 21.7 82 2.2 NNE 9 17 5 9 1008.7 1005.0 0.0
26/05:30pm 26.3 29.4 22.2 78 2.8 NNE 9 17 5 9 1008.3 1004.7 0.0
26/05:00pm 27.7 31.2 22.2 72 3.8 NNE 7 13 4 7 1008.2 1004.6 0.0
26/04:30pm 27.9 31.1 22.4 72 3.8 NE 9 15 5 8 1007.9 1004.3 0.0
26/04:00pm 28.8 32.7 22.5 68 4.4 NNE 6 9 3 5 1008.1 1004.5 0.0
26/03:30pm 28.6 31.9 22.6 70 4.2 N 9 17 5 9 1008.2 1004.6 0.0
26/03:00pm 28.6 31.0 21.6 66 4.8 NE 11 17 6 9 1008.4 1004.8 0.0
26/02:30pm 28.9 31.7 20.9 62 5.4 ENE 7 15 4 8 1009.0 1005.3 0.0
26/02:00pm 29.3 31.9 20.5 59 5.9 NE 7 15 4 8 1009.4 1005.8 0.0
26/01:30pm 29.0 31.5 20.2 59 5.9 E 7 11 4 6 1010.0 1006.4 0.0
26/01:00pm 29.1 32.5 21.6 64 5.1 N 6 11 3 6 1010.3 1006.7 0.0
26/12:30pm 27.8 30.1 19.8 61 5.3 NNE 7 17 4 9 1010.9 1007.3 0.0
26/12:00pm 28.1 31.2 21.1 65 4.8 NE 6 9 3 5 1011.4 1007.8 0.0
26/11:30am 26.8 30.0 20.6 69 4.2 NNE 4 9 2 5 1011.9 1008.3 0.0
26/11:00am 26.5 29.3 20.8 71 3.8 NNE 7 15 4 8 1012.1 1008.5 0.0
26/10:30am 26.8 29.8 20.9 70 4.0 NE 6 11 3 6 1012.3 1008.7 0.0
26/10:00am 26.0 29.7 21.4 76 3.1 N 4 7 2 4 1012.5 1008.8 0.0
26/09:30am 25.4 28.6 21.3 78 2.8 NNE 6 7 3 4 1012.7 1009.1 0.0
26/09:00am 24.9 28.7 21.0 79 2.6 NNE 2 4 1 2 1012.8 1009.2 0.0
26/08:30am 24.3 28.0 20.8 81 2.3 NE 2 6 1 3 1012.7 1009.1 0.0
26/08:00am 24.5 27.3 20.4 78 2.7 ENE 6 7 3 4 1012.6 1009.0 0.0
26/07:30am 24.2 28.0 21.7 86 1.7 ENE 4 11 2 6 1012.3 1008.7 0.0
26/07:00am 22.9 26.2 21.5 92 0.9 ENE 6 9 3 5 1012.1 1008.5 0.0
26/06:30am 22.1 25.4 21.4 96 0.5 NE 6 9 3 5 1011.5 1007.9 0.0
26/06:00am 22.4 25.9 21.9 97 0.3 NE 6 9 3 5 1011.2 1007.6 0.0
26/05:30am 22.5 26.1 22.0 97 0.3 ENE 6 11 3 6 1011.0 1007.4 0.0
26/05:00am 22.5 26.4 21.8 96 0.5 NE 4 6 2 3 1010.8 1007.1 0.0
26/04:30am 22.6 26.5 21.9 96 0.5 NE 4 7 2 4 1010.9 1007.3 0.0
26/04:00am 22.5 26.1 22.0 97 0.3 NE 6 9 3 5 1010.8 1007.1 0.0
26/03:30am 22.8 26.5 22.5 98 0.2 NE 7 11 4 6 1010.6 1006.9 0.0
26/03:00am 22.9 26.5 22.4 97 0.3 NE 7 13 4 7 1010.7 1007.0 0.0
26/02:30am 22.9 26.4 22.2 96 0.5 NE 7 15 4 8 1010.8 1007.1 0.0
26/02:00am 22.9 26.6 22.2 96 0.5 NE 6 11 3 6 1010.9 1007.3 0.0
26/01:30am 23.0 26.6 22.3 96 0.5 NE 7 15 4 8 1010.7 1007.0 0.0
26/01:00am 22.9 26.1 22.4 97 0.3 NE 9 15 5 8 1010.9 1007.3 0.0
26/12:30am 23.1 26.4 22.6 97 0.3 NE 9 19 5 10 1011.0 1007.4 0.0
26/12:00am 23.1 26.0 22.4 96 0.5 NE 11 19 6 10 1011.2 1007.6 0.0
 
Date/Time
EST
Temp
°C
App
Temp
°C
Dew
Point
Rel
Hum
%
Delta-T
°C
Wind Press
QNH
hPa
Press
MSL
hPa
Rain
since 9 am
mm
Dir
 
Spd
km/h
Gust
km/h
Spd
kts
Gust
kts
25/11:30pm 23.2 26.2 22.7 97 0.3 NE 11 24 6 13 1011.6 1008.0 0.0
25/11:00pm 23.4 26.5 22.9 97 0.3 NE 11 20 6 11 1011.5 1007.9 0.0
25/10:30pm 23.9 27.4 23.6 98 0.2 NE 11 20 6 11 1011.4 1007.8 0.0
25/10:00pm 23.6 27.1 22.9 96 0.5 NE 9 20 5 11 1011.4 1007.8 0.0
25/09:30pm 23.3 26.2 21.7 91 1.1 NE 9 17 5 9 1011.6 1008.0 0.0
25/09:00pm 23.1 25.8 21.4 90 1.1 NE 9 13 5 7 1011.3 1007.7 0.0
25/08:30pm 23.1 26.2 21.0 88 1.4 ENE 6 17 3 9 1010.9 1007.3 0.0
25/08:00pm 23.0 26.1 21.5 91 1.0 NE 7 11 4 6 1010.6 1006.9 0.0
25/07:30pm 23.2 26.3 21.5 90 1.1 NNE 7 13 4 7 1010.3 1006.7 0.0
25/07:00pm 23.5 27.4 21.8 90 1.2 NNE 4 7 2 4 1009.8 1006.2 0.0
25/06:30pm 24.2 27.7 21.9 87 1.6 NNE 6 13 3 7 1009.6 1006.0 0.0
25/06:00pm 25.4 28.8 22.7 85 1.9 NNE 9 17 5 9 1009.7 1006.1 0.0
25/05:30pm 26.0 29.0 22.7 82 2.3 NNE 11 20 6 11 1009.6 1006.0 0.0
25/05:00pm 26.1 29.3 22.4 80 2.5 NNE 9 17 5 9 1009.5 1005.9 0.0
25/04:30pm 26.7 30.8 23.2 81 2.4 NNE 7 13 4 7 1009.1 1005.4 0.0
25/04:00pm 26.9 30.8 22.9 79 2.8 NNE 7 13 4 7 1009.0 1005.3 0.0
25/03:30pm 27.2 31.0 22.8 77 3.0 NNE 7 15 4 8 1009.3 1005.7 0.0
25/03:00pm 27.5 31.3 23.5 79 2.8 NNE 9 15 5 8 1009.6 1006.0 0.0
25/02:30pm 27.0 30.8 23.5 81 2.4 NNE 9 17 5 9 1010.1 1006.5 0.0
25/02:00pm 28.4 32.6 23.5 75 3.4 NNE 7 15 4 8 1010.3 1006.7 0.0
25/01:30pm 29.1 32.6 22.1 66 4.8 NE 7 13 4 7 1010.9 1007.3 0.0
25/01:00pm 30.1 35.0 24.3 71 4.1 NNE 6 13 3 7 1011.1 1007.5 0.0
25/12:30pm 28.6 32.8 23.5 74 3.6 NE 7 13 4 7 1011.4 1007.8 0.0
25/12:00pm 28.4 32.8 23.5 75 3.4 NNE 6 11 3 6 1011.9 1008.3 0.0
25/11:30am 28.6 33.4 24.2 77 3.1 NNE 6 9 3 5 1012.1 1008.5 0.0
25/11:00am 27.4 31.8 22.8 76 3.2 NNE 4 7 2 4 1012.7 1009.1 0.0
25/10:30am 28.0 32.6 23.8 78 2.9 ENE 6 9 3 5 1012.9 1009.3 0.0
25/10:00am 26.8 31.2 23.5 82 2.3 NE 6 9 3 5 1012.9 1009.3 0.0
25/09:30am 26.5 30.6 23.0 81 2.4 NNE 6 9 3 5 1012.9 1009.3 0.0
25/09:00am 26.2 31.0 23.5 85 1.9 NE 4 7 2 4 1012.8 1009.2 0.0
25/08:30am 26.5 31.1 23.8 85 1.9 E 6 9 3 5 1012.7 1009.1 0.0
25/08:00am 25.1 29.9 23.5 91 1.1 E 4 9 2 5 1012.3 1008.7 0.0
25/07:30am 24.3 28.6 23.3 94 0.7 E 6 9 3 5 1012.2 1008.6 0.0
25/07:00am 24.2 28.7 23.7 97 0.3 ENE 6 11 3 6 1011.9 1008.3 0.0
25/06:30am 24.0 28.8 23.5 97 0.3 ENE 4 7 2 4 1011.8 1008.2 0.0
25/06:00am 24.0 28.4 23.5 97 0.3 ENE 6 9 3 5 1011.7 1008.1 0.0
25/05:30am 24.1 29.0 23.6 97 0.3 ENE 4 7 2 4 1011.6 1008.0 0.0
25/05:00am 24.1 29.3 23.6 97 0.3 NE 2 6 1 3 1011.1 1007.5 0.0
25/04:30am 24.1 29.0 23.6 97 0.3 ENE 4 6 2 3 1011.1 1007.5 0.0
25/04:00am 24.3 29.4 24.0 98 0.2 ENE 4 7 2 4 1011.0 1007.4 0.0
25/03:30am 24.4 29.2 24.1 98 0.2 ENE 6 13 3 7 1010.9 1007.3 0.0
25/03:00am 24.4 29.5 24.1 98 0.2 NE 4 7 2 4 1010.7 1007.0 0.0
25/02:30am 24.3 29.4 24.0 98 0.2 NNE 4 9 2 5 1010.7 1007.0 0.0
25/02:00am 24.4 29.2 24.1 98 0.2 NNE 6 13 3 7 1010.6 1006.9 0.0
25/01:30am 24.3 29.0 24.0 98 0.2 NNE 6 13 3 7 1010.9 1007.3 0.0
25/01:00am 24.5 29.1 24.2 98 0.2 NE 7 15 4 8 1011.3 1007.7 0.0
25/12:30am 24.6 29.5 24.3 98 0.2 ENE 6 9 3 5 1011.7 1008.1 0.0
25/12:00am 24.3 28.8 24.0 98 0.2 NNE 7 13 4 7 1011.8 1008.2 0.0
 
Date/Time
EST
Temp
°C
App
Temp
°C
Dew
Point
Rel
Hum
%
Delta-T
°C
Wind Press
QNH
hPa
Press
MSL
hPa
Rain
since 9 am
mm
Dir
 
Spd
km/h
Gust
km/h
Spd
kts
Gust
kts
24/11:30pm 24.7 29.5 24.4 98 0.2 NNE 7 19 4 10 1012.0 1008.4 0.0
24/11:00pm 24.6 29.5 24.3 98 0.2 NNE 6 13 3 7 1012.5 1008.8 0.0
24/10:30pm 24.6 28.9 24.3 98 0.2 NNE 9 19 5 10 1012.2 1008.6 0.0
24/10:00pm 24.8 29.6 24.5 98 0.2 N 7 13 4 7 1012.3 1008.7 0.0
24/09:30pm 24.6 28.9 24.3 98 0.2 NNE 9 20 5 11 1012.5 1008.8 0.0
24/09:00pm 24.7 29.1 24.4 98 0.2 N 9 19 5 10 1012.1 1008.5 0.0
24/08:30pm 24.8 28.9 24.5 98 0.2 NE 11 20 6 11 1011.0 1007.4 0.0
24/08:00pm 24.7 29.0 24.2 97 0.4 NNE 9 17 5 9 1010.3 1006.7 0.0
24/07:30pm 24.6 29.1 23.7 95 0.6 NNE 6 9 3 5 1010.3 1006.7 0.0
24/07:00pm 24.7 29.6 23.7 94 0.7 N 4 7 2 4 1011.0 1007.4 0.0
24/06:30pm 25.0 29.7 24.0 94 0.7 NNE 6 11 3 6 1010.8 1007.1 0.0
24/06:00pm 25.4 30.1 24.0 92 1.0 NNE 6 11 3 6 1010.2 1006.6 0.0
24/05:30pm 25.6 29.9 23.7 89 1.3 NNE 7 13 4 7 1010.0 1006.4 0.0
24/05:00pm 26.0 29.7 23.3 85 1.9 NNE 9 15 5 8 1009.8 1006.2 0.0
24/04:30pm 26.9 31.3 23.8 83 2.2 NNE 7 17 4 9 1009.8 1006.2 0.0
24/04:00pm 27.5 31.6 23.9 81 2.5 NNE 9 20 5 11 1009.5 1005.9 0.0

Other Formats:

Comma delimited format used in spreadsheet applications
http://www.bom.gov.au/fwo/IDQ60801/IDQ60801.95293.axf

JavaScript Object Notation format (JSON) in row-major order
http://www.bom.gov.au/fwo/IDQ60801/IDQ60801.95293.json